CheckWX is a tool to help pilots better visualize weather data.  It is not intended as a substitute for an official pre-flight weather briefing.

05:24:31 UTC

ETAR METAR
Ramstein Air Base Airport
Ramstein, Germany
Current

29 mins ago

ETAR 240456Z 05007KT 9999 CLR M04/M12 A3062 RMK AO2A SLP386 T1036 $
Observed
Feb-24 @ 04:56 UTC
Wind
  • 050° at 7 KTS
Visibility
10,000+ meters
Flight Rules
VFR
Cloud Levels
  • Clear skies
Temperature
-4°C / 25°F
Dewpoint
-12°C / 10°F
Humidity
54%
Altimeter
30.62" Hg
Pressure
1038.6 hPa
Previous

1 hour ago

ETAR 240356Z 08004KT 9999 CLR M04/M12 A3061 RMK AO2A SLP382 T1039 $
Observed
Feb-24 @ 03:56 UTC
Wind
  • 080° at 4 KTS
Visibility
10,000+ meters
Flight Rules
VFR
Cloud Levels
  • Clear skies
Temperature
-4°C / 25°F
Dewpoint
-12°C / 10°F
Humidity
54%
Altimeter
30.61" Hg
Pressure
1038.2 hPa
Previous

2 hours ago

ETAR 240256Z 00000KT 9999 CLR M04/M13 A3061 RMK AO2A SLP380 T1043 58002 $
Observed
Feb-24 @ 02:56 UTC
Visibility
10,000+ meters
Flight Rules
VFR
Cloud Levels
  • Clear skies
Temperature
-4°C / 25°F
Dewpoint
-13°C / 9°F
Humidity
50%
Altimeter
30.61" Hg
Pressure
1038 hPa